< Typhoon 196422 1964 Season Typhoon 196424 >
Typhoon 196423 (CLARA)
General InformationTrack Information on Google Maps || Disaster Info.ResourceGoogle EarthGE AnimationAtom FeedGeoJSON
Detalied Best Track (Time Zone = UTC)
Year Month Day Hour Lat. Long. Pressure (hPa) Wind (kt) Class Image Chart
1964 10 1 12 7.0 142.0 1004 0 2 -- Chart
1964 10 1 18 8.0 140.0 1004 0 2 -- Chart
1964 10 2 00 8.0 138.0 1004 0 2 -- Chart
1964 10 2 06 9.4 137.0 1002 0 2 -- Chart
1964 10 2 12 10.0 136.0 1002 0 2 -- Chart
1964 10 2 18 10.2 134.7 1002 0 2 -- Chart
1964 10 3 00 11.7 133.5 1002 0 2 -- Chart
1964 10 3 06 13.2 132.0 1002 0 2 -- Chart
1964 10 3 12 14.4 130.4 1000 0 9 -- Chart
1964 10 3 18 15.0 129.3 996 0 9 -- Chart
1964 10 4 00 15.2 127.7 990 0 9 -- Chart
1964 10 4 06 15.5 126.3 990 0 9 -- Chart
1964 10 4 12 15.8 124.9 990 0 9 -- Chart
1964 10 4 18 16.1 123.5 990 0 9 -- Chart
1964 10 5 00 16.4 122.2 985 0 9 -- Chart
1964 10 5 06 16.5 120.3 985 0 9 -- Chart
1964 10 5 12 17.1 118.8 985 0 9 -- Chart
1964 10 5 18 17.4 117.5 985 0 9 -- Chart
1964 10 6 00 17.8 116.2 985 0 9 -- Chart
1964 10 6 06 17.8 114.8 980 0 9 -- Chart
1964 10 6 12 18.0 113.9 980 0 9 -- Chart
1964 10 6 18 18.0 112.8 980 0 9 -- Chart
1964 10 7 00 18.0 111.6 985 0 9 -- Chart
1964 10 7 06 18.0 110.2 985 0 9 -- Chart
1964 10 7 12 18.0 109.0 985 0 9 -- Chart
1964 10 7 18 18.0 107.8 985 0 9 -- Chart
1964 10 8 00 18.0 106.5 990 0 9 -- Chart
1964 10 8 06 18.0 105.0 1000 0 9 -- Chart
1964 10 8 12 18.0 104.0 1000 0 9 -- Chart
1964 10 8 18 17.6 103.3 1004 0 2 -- Chart
Japan Meteorological Agency Best Track Data | Correction Date : 1989-06-01
< Typhoon 196422 1964 Season Typhoon 196424 >

Help